Historyczne dane pomiarowe

Dodano dane terminowe – wersja testowa.

Dane z okresu 1951-2019

Wersja bazy: 1.34 [2019-03-16, lista zmian], aktualizacja planowana na 2019-04-15

Dane meteo z obszaru Polski uzyskane na podstawie danych udostępnionych przez Instytut Meteorologii i Gospodarki Wodnej – Państwowy Instytut Badawczy.

 

Wybierz Datę:    

       

TemperaturaWilgotnośćWiatrCiśnienieOpadyŚniegCzas trwania zjawisk
 Stacja t tx tn tng RH VA  wxwx mslp ppp RRR   cm mm wxwxwxwxwxwxwx
1956-11-09 -4.4--- 70.8- 1.0 4.7---- 0.0-- 11---------
1956-11-08 -3.9--- 80.0- 2.7 1.7---- 0.0-- 12---------
1956-11-07 -0.2--- 99.0- 8.0 2.0---- 9.5-- 6---------
1956-11-06 1.5--- 84.0- 6.0 5.7---- 17.2------------
1956-11-05 4.3--- 83.5- 8.0 7.0---- 1.5------------
1956-11-04 1.1--- 74.5- 1.7 0.0---- 0.0------------
1956-11-03 -0.6--- 89.3- 6.3 2.3---- 0.0------------
1956-11-02 -0.6--- 91.3- 5.7 1.7---- 0.9------------
1956-11-01 -3.2--- 73.3- 0.0 0.0---- 0.0------------
1956-10-31 -3.3--- 83.3- 5.3 3.7---- 0.0------------
1956-10-30 4.7--- 91.3- 7.3 3.3---- 0.0------------
1956-10-29 3.7--- 94.3- 8.0 3.7---- 8.2------------
1956-10-28 5.7--- 94.0- 8.0 3.3---- 25.5------------
1956-10-27 9.6--- 89.5- 6.7 2.0---- 1.3------------
1956-10-26 6.9--- 98.5- 8.0 3.0---- 8.9------------
1956-10-25 10.9--- 77.5- 1.0 2.0---- 1.6------------
1956-10-24 10.5--- 81.8- 0.3 0.7---- 0.0------------
1956-10-23 9.5--- 84.8- 0.0 0.7---- 0.0------------
1956-10-22 10.9--- 83.5- 0.0 0.0---- 0.0------------
1956-10-21 11.4--- 80.3- 2.7 0.0---- 0.0------------
1956-10-20 11.9--- 92.5- 8.0 0.0---- 0.1------------
1956-10-19 12.6-- 0.1 89.0- 8.0 3.3---- 1.2------------
1956-10-18 10.3--- 90.5- 8.0 1.0---- 5.7------------
1956-10-17 6.3--- 83.3- 0.0 0.3---- 0.2------------
1956-10-16 5.1--- 79.5- 0.0 1.7---- 0.0------------
1956-10-15 5.8--- 88.3- 3.7 2.3---- 0.0------------
1956-10-14 9.5--- 85.3- 7.7 9.0---- 3.4------------
1956-10-13 10.0--- 69.5- 5.0 8.3---- 0.0------------
1956-10-12 9.5--- 66.5- 2.7 2.3---- 0.0------------
1956-10-11 5.2--- 79.5- 0.7 2.3---- 0.0------------
1956-10-10 3.2--- 85.5- 2.7 3.3---- 0.0------------
1956-10-09 6.6--- 89.5- 8.0 1.7---- 3.1------------
1956-10-08 3.8--- 83.8- 5.0 1.0---- 0.0------------
1956-10-07 5.3--- 77.0- 4.0 8.3---- 0.0------------
1956-10-06 4.9--- 88.8- 8.0 6.7---- 12.1------------
1956-10-05 10.2--- 72.0- 7.0 3.0---- 5.1------------
1956-10-04 11.2--- 84.3- 7.7 1.3---- 1.5------------
1956-10-03 14.6--- 77.5- 4.7 3.0---- 3.2------------
1956-10-02 21.2--- 49.3- 2.3 8.7---- 0.0------------
1956-10-01 17.0--- 72.0- 1.0 2.3---- 0.0------------
1956-09-30 15.8--- 81.0- 3.0 0.0---- 0.0------------
1956-09-29 16.8--- 72.8- 2.0 1.0---- 0.0------------
1956-09-28 13.3--- 83.3- 4.3 1.0---- 0.3------------
1956-09-27 16.6--- 70.8- 4.3 2.0---- 0.0------------
1956-09-26 17.9--- 39.5- 1.3 8.3---- 0.0------------
1956-09-25 15.1--- 57.3- 0.0 3.0---- 0.0------------
1956-09-24 11.0--- 79.8- 2.7 1.7---- 0.0------------
1956-09-23 12.0--- 78.3- 0.0 1.0---- 0.0------------
1956-09-22 13.5--- 70.3- 0.0 1.0---- 0.0------------
1956-09-21 11.3--- 82.8- 0.0 1.0---- 0.0------------
1956-09-20 13.0--- 72.3- 0.3 2.7---- 0.0------------
1956-09-19 8.5--- 79.5- 0.0 1.3---- 0.0------------
1956-09-18 6.9--- 89.0- 4.3 2.3---- 0.0------------
1956-09-17 9.4--- 91.0- 7.3 5.7---- 4.8------------
1956-09-16 11.7--- 82.5- 2.0 1.0---- 0.0------------
1956-09-15 11.6--- 85.3- 4.7 2.7---- 0.0------------
1956-09-14 9.5--- 86.3- 2.3 3.3---- 0.0------------
1956-09-13 9.6--- 82.0- 4.7 8.0---- 4.2------------
1956-09-12 10.8--- 87.3- 6.3 6.3---- 9.8------------
1956-09-11 14.6--- 93.3- 4.3 3.0---- 5.4------------
343.0 ms

 

Źródłem pochodzenia danych jest Instytut Meteorologii i Gospodarki Wodnej – Państwowy Instytut Badawczy. Dane Instytutu Meteorologii i Gospodarki Wodnej – Państwowego Instytutu Badawczego zostały przetworzone.

Dane źródłowe można odnaleźć na stronie https://dane.imgw.pl